Time;durP1;ratioP1;P1;durP2;ratioP2;P2;SDS_P1;SDS_P2;PMS_P1;PMS_P2;Temp;Humidity;BMP_temperature;BMP_pressure;BME280_temperature;BME280_humidity;BME280_pressure;Samples;Min_cycle;Max_cycle;Signal;HPM_P1;HPM_P2
2023/05/21 00:02:16;;;;;;;6.25;3.08;;;;;;;-143.48;61.61;118439.88;5053813;28;20126;-32
2023/05/21 00:04:43;;;;;;;6.18;2.80;;;;;;;-143.48;61.02;118439.88;5053838;28;20186;-32
2023/05/21 00:07:09;;;;;;;7.85;2.90;;;;;;;-143.48;61.27;118439.88;5053995;28;20033;-32
2023/05/21 00:09:37;;;;;;;5.90;2.97;;;;;;;-143.48;61.47;118439.88;5053711;28;20025;-31
2023/05/21 00:12:03;;;;;;;6.35;3.10;;;;;;;-143.48;61.90;118439.88;5035837;28;20028;-32
2023/05/21 00:14:28;;;;;;;7.07;2.92;;;;;;;-143.48;63.00;118439.88;5053381;28;20039;-32
2023/05/21 00:16:54;;;;;;;4.43;2.70;;;;;;;-143.48;62.50;118439.88;5053925;28;20107;-32
2023/05/21 00:19:19;;;;;;;4.53;3.00;;;;;;;-143.48;62.33;118439.88;5053863;28;20029;-32
2023/05/21 00:21:44;;;;;;;6.43;3.03;;;;;;;-143.48;62.52;118439.88;5053601;28;20029;-32
2023/05/21 00:24:10;;;;;;;6.43;3.15;;;;;;;-143.48;63.28;118439.88;5053337;28;20475;-32
2023/05/21 00:26:35;;;;;;;7.50;3.38;;;;;;;-143.48;62.10;118439.88;5053780;28;20025;-31
2023/05/21 00:29:01;;;;;;;6.90;3.17;;;;;;;-143.48;62.51;118439.88;5053624;28;20020;-31
2023/05/21 00:31:26;;;;;;;5.97;3.03;;;;;;;-143.48;62.43;118439.88;5053542;28;20079;-32
2023/05/21 00:33:51;;;;;;;6.13;3.05;;;;;;;-143.48;62.70;118439.88;5053242;28;20020;-32
2023/05/21 00:36:17;;;;;;;6.60;3.25;;;;;;;-143.48;62.78;118439.88;5053106;28;20036;-32
2023/05/21 00:38:42;;;;;;;4.68;2.97;;;;;;;-143.48;64.23;118439.88;5053303;28;20029;-32
2023/05/21 00:41:11;;;;;;;8.02;3.45;;;;;;;-143.48;64.44;118439.88;5053720;28;20426;-31
2023/05/21 00:43:39;;;;;;;7.70;3.05;;;;;;;-143.48;64.36;118439.88;5053308;28;20439;-32
2023/05/21 00:46:06;;;;;;;6.57;3.30;;;;;;;-143.48;64.36;118439.88;5053372;28;20017;-32
2023/05/21 00:48:32;;;;;;;8.23;3.20;;;;;;;-143.48;64.29;118439.88;5053458;28;20120;-32
2023/05/21 00:50:57;;;;;;;6.63;3.42;;;;;;;-143.48;65.02;118439.88;5053188;28;20060;-32
2023/05/21 00:53:23;;;;;;;8.18;3.13;;;;;;;-143.48;64.27;118439.88;5035393;28;20025;-32
2023/05/21 00:55:49;;;;;;;7.30;3.17;;;;;;;-143.48;63.92;118439.88;5053297;28;20025;-32
2023/05/21 00:58:16;;;;;;;10.65;3.60;;;;;;;-143.48;64.73;118439.88;5053673;28;20116;-32
2023/05/21 01:00:42;;;;;;;8.23;3.40;;;;;;;-143.48;64.08;118439.88;5053262;28;20025;-32
2023/05/21 01:03:08;;;;;;;6.22;3.47;;;;;;;-143.48;64.41;118439.88;5053047;28;20032;-32
2023/05/21 01:05:35;;;;;;;8.82;3.42;;;;;;;-143.48;65.35;118439.88;5053257;28;20029;-32
2023/05/21 01:08:01;;;;;;;5.47;3.40;;;;;;;-143.48;65.06;118439.88;5053198;28;20027;-32
2023/05/21 01:10:27;;;;;;;5.70;3.47;;;;;;;-143.48;65.85;118439.88;5053116;28;20468;-32
2023/05/21 01:12:56;;;;;;;8.68;3.80;;;;;;;-143.48;65.70;118439.88;5053056;28;20361;-32
2023/05/21 01:15:21;;;;;;;7.15;3.80;;;;;;;-143.48;66.27;118439.88;5052663;28;20095;-32
2023/05/21 01:17:47;;;;;;;7.00;3.60;;;;;;;-143.48;65.86;118439.88;5053153;28;20032;-32
2023/05/21 01:20:16;;;;;;;6.00;3.63;;;;;;;-143.48;65.93;118439.88;5052880;28;20021;-32
2023/05/21 01:22:52;;;;;;;6.10;3.55;;;;;;;-143.48;65.52;118439.88;5053190;28;20051;-32
2023/05/21 01:25:18;;;;;;;6.75;3.28;;;;;;;-143.48;65.56;118439.88;5053640;28;20096;-31
2023/05/21 01:27:43;;;;;;;7.57;3.55;;;;;;;-143.48;65.92;118439.88;5035011;28;20064;-32
2023/05/21 01:30:09;;;;;;;5.13;3.30;;;;;;;-143.48;66.51;118439.88;5052723;28;20029;-32
2023/05/21 01:32:51;;;;;;;9.23;4.00;;;;;;;-143.48;65.98;118439.88;5052992;28;20024;-32
2023/05/21 01:35:21;;;;;;;10.93;3.97;;;;;;;-143.48;66.09;118439.88;5052986;28;20021;-31
2023/05/21 01:37:54;;;;;;;6.22;3.88;;;;;;;-143.48;66.31;118439.88;5052727;28;20025;-32
2023/05/21 01:40:45;;;;;;;7.68;3.90;;;;;;;-143.48;66.05;118439.88;5052931;28;20025;-32
2023/05/21 01:43:12;;;;;;;8.15;3.85;;;;;;;-143.48;65.52;118439.88;5052122;28;20391;-32
2023/05/21 01:45:40;;;;;;;5.63;3.80;;;;;;;-143.48;66.16;118439.88;5052717;28;20546;-31
2023/05/21 01:48:07;;;;;;;8.25;4.20;;;;;;;-143.48;66.59;118439.88;5054127;28;20030;-32
2023/05/21 01:50:33;;;;;;;8.13;4.05;;;;;;;-143.48;66.39;118439.88;5056323;28;20025;-32
2023/05/21 01:52:59;;;;;;;7.20;4.53;;;;;;;-143.48;66.92;118439.88;5056598;28;20151;-32
2023/05/21 01:55:26;;;;;;;7.55;3.90;;;;;;;-143.48;65.94;118439.88;5056447;28;20033;-32
2023/05/21 01:57:53;;;;;;;9.02;3.92;;;;;;;-143.48;66.46;118439.88;5056517;28;20451;-32
2023/05/21 02:00:21;;;;;;;6.53;4.03;;;;;;;-143.48;66.46;118439.88;5056416;28;20052;-31
2023/05/21 02:02:46;;;;;;;7.97;4.30;;;;;;;-143.48;66.89;118439.88;5056203;28;20062;-32
2023/05/21 02:05:12;;;;;;;6.55;4.30;;;;;;;-143.48;66.48;118439.88;5056073;28;20124;-32
2023/05/21 02:07:39;;;;;;;6.47;3.97;;;;;;;-143.48;66.17;118439.88;5055974;28;20383;-31
2023/05/21 02:10:05;;;;;;;6.13;4.00;;;;;;;-143.48;65.51;118439.88;5056320;28;20313;-31
2023/05/21 02:12:30;;;;;;;7.22;4.07;;;;;;;-143.48;66.29;118439.88;5056172;28;20013;-31
2023/05/21 02:14:56;;;;;;;8.93;4.30;;;;;;;-143.48;65.65;118439.88;5055571;28;20534;-31
2023/05/21 02:17:23;;;;;;;6.22;3.80;;;;;;;-143.48;66.27;118439.88;5056156;28;20103;-32
2023/05/21 02:19:48;;;;;;;6.88;3.95;;;;;;;-143.48;65.93;118439.88;5056125;28;20031;-31
2023/05/21 02:22:14;;;;;;;7.35;4.18;;;;;;;-143.48;65.74;118439.88;5056323;28;20036;-32
2023/05/21 02:24:39;;;;;;;9.45;4.28;;;;;;;-143.48;66.38;118439.88;5055883;28;20462;-31
2023/05/21 02:27:05;;;;;;;6.30;4.05;;;;;;;-143.48;66.23;118439.88;5055921;28;20032;-32
2023/05/21 02:29:31;;;;;;;6.18;4.05;;;;;;;-143.48;65.87;118439.88;5056181;28;20021;-32
2023/05/21 02:31:56;;;;;;;8.68;4.13;;;;;;;-143.48;66.40;118439.88;5037565;28;20087;-32
2023/05/21 02:34:23;;;;;;;7.10;4.50;;;;;;;-143.48;66.29;118439.88;5055685;28;20021;-31
2023/05/21 02:36:51;;;;;;;9.27;4.53;;;;;;;-143.48;67.10;118439.88;5055659;28;20024;-32
2023/05/21 02:39:16;;;;;;;6.03;3.83;;;;;;;-143.48;66.14;118439.88;5055411;28;20024;-31
2023/05/21 02:41:41;;;;;;;9.13;3.80;;;;;;;-143.48;66.30;118439.88;5055648;28;20029;-32
2023/05/21 02:44:07;;;;;;;9.93;4.20;;;;;;;-143.48;66.67;118439.88;5055848;28;20043;-32
2023/05/21 02:46:32;;;;;;;5.10;3.70;;;;;;;-143.48;66.72;118439.88;5055444;28;20056;-32
2023/05/21 02:48:57;;;;;;;6.18;4.00;;;;;;;-143.48;66.48;118439.88;5055310;28;20486;-31
2023/05/21 02:51:23;;;;;;;7.85;3.92;;;;;;;-143.48;66.81;118439.88;5055459;28;20033;-31
2023/05/21 02:53:48;;;;;;;6.57;3.88;;;;;;;-143.48;67.49;118439.88;5055170;28;20046;-31
2023/05/21 02:56:13;;;;;;;5.82;4.05;;;;;;;-143.48;67.52;118439.88;5055350;28;20039;-32
2023/05/21 02:58:39;;;;;;;7.40;4.13;;;;;;;-143.48;67.89;118439.88;5054834;28;20383;-31
2023/05/21 03:01:04;;;;;;;7.43;3.92;;;;;;;-143.48;68.12;118439.88;5055240;28;20103;-31
2023/05/21 03:03:31;;;;;;;6.00;3.80;;;;;;;-143.48;67.54;118439.88;5055325;28;20114;-31
2023/05/21 03:05:57;;;;;;;5.68;3.78;;;;;;;-143.48;68.00;118439.88;5055209;28;20013;-32
2023/05/21 03:08:23;;;;;;;7.50;3.97;;;;;;;-143.48;67.75;118439.88;5055057;28;20483;-32
2023/05/21 03:10:49;;;;;;;6.10;4.00;;;;;;;-143.48;68.73;118439.88;5055069;28;20463;-32
2023/05/21 03:13:14;;;;;;;8.00;3.55;;;;;;;-143.48;68.64;118439.88;5054767;28;20021;-32
2023/05/21 03:15:39;;;;;;;6.38;3.90;;;;;;;-143.48;69.29;118439.88;5054580;28;20049;-32
2023/05/21 03:18:05;;;;;;;7.68;3.80;;;;;;;-143.48;68.97;118439.88;5055485;28;20052;-33
2023/05/21 03:20:30;;;;;;;7.25;3.90;;;;;;;-143.48;68.91;118439.88;5054768;28;20028;-31
2023/05/21 03:22:56;;;;;;;5.88;3.83;;;;;;;-143.48;68.79;118439.88;5054905;28;20387;-31
2023/05/21 03:25:23;;;;;;;6.43;3.60;;;;;;;-143.48;69.35;118439.88;5054843;28;20094;-32
2023/05/21 03:27:49;;;;;;;8.38;4.25;;;;;;;-143.48;68.72;118439.88;5055098;28;20029;-32
2023/05/21 03:30:15;;;;;;;8.60;3.90;;;;;;;-143.48;69.09;118439.88;5054401;28;20036;-32
2023/05/21 03:32:40;;;;;;;6.53;3.95;;;;;;;-143.48;70.20;118439.88;5054700;28;20032;-32
2023/05/21 03:35:06;;;;;;;7.93;3.92;;;;;;;-143.48;70.39;118439.88;5054558;28;20100;-32
2023/05/21 03:37:31;;;;;;;9.80;4.07;;;;;;;-143.48;70.14;118439.88;5054904;28;20025;-31
2023/05/21 03:39:56;;;;;;;8.00;4.10;;;;;;;-143.48;69.94;118439.88;5054205;28;20447;-31
2023/05/21 03:42:22;;;;;;;5.68;3.65;;;;;;;-143.48;70.13;118439.88;5054434;28;20040;-32
2023/05/21 03:44:47;;;;;;;7.93;4.40;;;;;;;-143.48;69.88;118439.88;5054180;28;20021;-32
2023/05/21 03:47:12;;;;;;;5.07;3.55;;;;;;;-143.48;70.20;118439.88;5054445;28;20033;-31
2023/05/21 03:49:38;;;;;;;8.27;3.92;;;;;;;-143.48;69.93;118439.88;5054369;28;20020;-32
2023/05/21 03:52:03;;;;;;;4.97;3.60;;;;;;;-143.48;70.04;118439.88;5054334;28;20025;-32
2023/05/21 03:54:29;;;;;;;5.85;4.05;;;;;;;-143.48;70.98;118439.88;5054202;28;20029;-32
2023/05/21 03:56:54;;;;;;;6.10;4.03;;;;;;;-143.48;70.68;118439.88;5054273;28;20043;-32
2023/05/21 03:59:20;;;;;;;8.90;3.70;;;;;;;-143.48;71.38;118439.88;5053769;28;20059;-32
2023/05/21 04:01:46;;;;;;;6.95;3.80;;;;;;;-143.48;71.47;118439.88;5054154;28;20108;-32
2023/05/21 04:04:11;;;;;;;6.40;3.80;;;;;;;-143.48;71.37;118439.88;5054013;28;20107;-33
2023/05/21 04:06:37;;;;;;;9.85;3.70;;;;;;;-143.48;71.66;118439.88;5053761;28;20025;-31
2023/05/21 04:09:03;;;;;;;6.93;3.67;;;;;;;-143.48;71.40;118439.88;5054046;28;20021;-32
2023/05/21 04:11:28;;;;;;;5.60;3.70;;;;;;;-143.48;71.79;118439.88;5053475;28;20021;-31
2023/05/21 04:13:54;;;;;;;8.07;3.70;;;;;;;-143.48;72.07;118439.88;5053999;28;20329;-31
2023/05/21 04:16:19;;;;;;;8.05;3.80;;;;;;;-143.48;72.06;118439.88;5053537;28;20587;-31
2023/05/21 04:18:45;;;;;;;9.48;3.83;;;;;;;-143.48;72.58;118439.88;5054112;28;20021;-32
2023/05/21 04:21:11;;;;;;;6.10;3.90;;;;;;;-143.48;72.34;118439.88;5053875;28;20044;-32
2023/05/21 04:23:36;;;;;;;5.93;3.90;;;;;;;-143.48;72.90;118439.88;5053768;28;20025;-31
2023/05/21 04:26:02;;;;;;;5.93;3.92;;;;;;;-143.48;72.79;118439.88;5053386;28;20104;-31
2023/05/21 04:28:27;;;;;;;5.68;3.75;;;;;;;-143.48;73.06;118439.88;5053755;28;20044;-31
2023/05/21 04:30:55;;;;;;;7.70;3.90;;;;;;;-143.48;73.21;118439.88;5053699;28;20017;-31
2023/05/21 04:33:20;;;;;;;5.03;3.63;;;;;;;-143.48;72.29;118439.88;5053553;28;20486;-31
2023/05/21 04:35:48;;;;;;;5.28;3.58;;;;;;;-143.48;72.96;118439.88;5053269;28;20108;-32
2023/05/21 04:38:18;;;;;;;7.75;3.72;;;;;;;-143.48;73.68;118439.88;5053135;28;20039;-31
2023/05/21 04:40:50;;;;;;;6.97;3.80;;;;;;;-143.48;73.74;118439.88;5053547;28;20079;-31
2023/05/21 04:43:16;;;;;;;6.85;3.70;;;;;;;-143.48;74.25;118439.88;5053219;28;20021;-31
2023/05/21 04:45:42;;;;;;;6.32;3.85;;;;;;;-143.48;73.88;118439.88;5053209;28;20032;-31
2023/05/21 04:48:07;;;;;;;6.63;3.80;;;;;;;-143.48;75.49;118439.88;5053089;28;20052;-31
2023/05/21 04:50:33;;;;;;;8.95;4.45;;;;;;;-143.48;74.71;118439.88;5053923;28;20060;-31
2023/05/21 04:52:58;;;;;;;9.93;4.55;;;;;;;-143.48;74.91;118439.88;5053566;28;20102;-32
2023/05/21 04:55:24;;;;;;;8.32;3.90;;;;;;;-143.48;74.53;118439.88;5053293;28;20021;-31
2023/05/21 04:57:50;;;;;;;11.45;4.00;;;;;;;-143.48;74.48;118439.88;5053268;28;20079;-31
2023/05/21 05:00:16;;;;;;;8.10;4.40;;;;;;;-143.48;74.68;118439.88;5053294;28;20033;-32
2023/05/21 05:02:41;;;;;;;6.55;4.07;;;;;;;-143.48;74.86;118439.88;5053364;28;20021;-31
2023/05/21 05:05:07;;;;;;;9.88;4.18;;;;;;;-143.48;75.01;118439.88;5053009;28;20511;-31
2023/05/21 05:07:32;;;;;;;9.07;4.20;;;;;;;-143.48;75.10;118439.88;5052972;28;20032;-30
2023/05/21 05:09:58;;;;;;;8.57;4.22;;;;;;;-143.48;75.87;118439.88;5052935;28;20383;-31
2023/05/21 05:12:23;;;;;;;6.57;4.53;;;;;;;-143.48;75.51;118439.88;5053309;28;20033;-31
2023/05/21 05:14:48;;;;;;;7.88;4.20;;;;;;;-143.48;76.04;118439.88;5053062;28;20041;-31
2023/05/21 05:17:13;;;;;;;6.78;4.40;;;;;;;-143.48;75.64;118439.88;5053422;28;20033;-31
2023/05/21 05:19:39;;;;;;;7.50;4.40;;;;;;;-143.48;75.55;118439.88;5052905;28;20464;-31
2023/05/21 05:22:05;;;;;;;8.18;4.35;;;;;;;-143.48;76.04;118439.88;5053034;28;20148;-31
2023/05/21 05:24:30;;;;;;;9.40;4.18;;;;;;;-143.48;75.89;118439.88;5056737;28;20428;-31
2023/05/21 05:26:56;;;;;;;8.30;4.40;;;;;;;-143.48;76.45;118439.88;5056863;28;20029;-31
2023/05/21 05:29:21;;;;;;;8.50;4.22;;;;;;;-143.48;75.92;118439.88;5057027;28;20044;-31
2023/05/21 05:31:46;;;;;;;7.88;4.00;;;;;;;-143.48;76.24;118439.88;5057104;28;20112;-30
2023/05/21 05:34:11;;;;;;;9.95;4.88;;;;;;;-143.48;75.78;118439.88;5057139;28;20371;-31
2023/05/21 05:36:37;;;;;;;7.75;4.45;;;;;;;-143.48;76.12;118439.88;5057169;28;20025;-32
2023/05/21 05:39:02;;;;;;;7.82;4.55;;;;;;;-143.48;75.67;118439.88;5056577;28;20166;-32
2023/05/21 05:41:27;;;;;;;7.40;4.38;;;;;;;-143.48;76.12;118439.88;5056528;28;20024;-31
2023/05/21 05:43:53;;;;;;;6.72;4.80;;;;;;;-143.48;76.99;118439.88;5056687;28;20028;-31
2023/05/21 05:46:18;;;;;;;9.43;4.70;;;;;;;-143.48;76.58;118439.88;5057223;28;20048;-31
2023/05/21 05:48:43;;;;;;;8.60;5.10;;;;;;;-143.48;76.91;118439.88;5056427;28;20052;-31
2023/05/21 05:51:10;;;;;;;9.02;4.47;;;;;;;-143.48;75.86;118439.88;5056396;28;20045;-31
2023/05/21 05:53:35;;;;;;;9.70;5.15;;;;;;;-143.48;75.23;118439.88;5056556;28;20021;-31
2023/05/21 05:56:01;;;;;;;9.68;4.70;;;;;;;-143.48;76.00;118439.88;5056500;28;20100;-32
2023/05/21 05:58:26;;;;;;;9.10;5.28;;;;;;;-143.48;76.38;118439.88;5056506;28;20036;-31
2023/05/21 06:00:51;;;;;;;8.35;5.10;;;;;;;-143.48;75.28;118439.88;5056233;28;20025;-31
2023/05/21 06:03:17;;;;;;;9.90;4.95;;;;;;;-143.48;75.75;118439.88;5056126;28;20025;-31
2023/05/21 06:05:43;;;;;;;6.95;5.00;;;;;;;-143.48;75.93;118439.88;5038153;28;20036;-31
2023/05/21 06:08:08;;;;;;;7.93;5.10;;;;;;;-143.48;75.60;118439.88;5056062;28;20365;-31
2023/05/21 06:10:33;;;;;;;9.75;5.10;;;;;;;-143.48;75.59;118439.88;5055981;28;20539;-31
2023/05/21 06:12:59;;;;;;;9.38;5.10;;;;;;;-143.48;75.12;118439.88;5056272;28;20021;-31
2023/05/21 06:15:24;;;;;;;8.85;5.10;;;;;;;-143.48;73.62;118439.88;5055645;28;20506;-31
2023/05/21 06:17:49;;;;;;;7.50;5.18;;;;;;;-143.48;74.39;118439.88;5056163;28;20052;-31
2023/05/21 06:20:15;;;;;;;6.97;4.82;;;;;;;-143.48;75.88;118439.88;5056136;28;20143;-32
2023/05/21 06:22:40;;;;;;;8.68;5.38;;;;;;;-143.48;73.77;118439.88;5055991;28;20036;-32
2023/05/21 06:25:06;;;;;;;7.72;5.05;;;;;;;-143.48;74.46;118439.88;5056005;28;20040;-31
2023/05/21 06:27:32;;;;;;;9.35;5.18;;;;;;;-143.48;74.05;118439.88;5055858;28;20098;-31
2023/05/21 06:29:57;;;;;;;9.85;4.88;;;;;;;-143.48;74.67;118439.88;5055912;28;20025;-31
2023/05/21 06:32:23;;;;;;;11.13;5.10;;;;;;;-143.48;73.94;118439.88;5055624;28;20024;-31
2023/05/21 06:34:49;;;;;;;9.95;5.13;;;;;;;-143.48;72.77;118439.88;5055072;28;20031;-32
2023/05/21 06:37:18;;;;;;;8.70;5.20;;;;;;;-143.48;72.79;118439.88;5055676;28;20103;-33
2023/05/21 06:39:43;;;;;;;11.27;5.35;;;;;;;-143.48;72.55;118439.88;5055448;28;20369;-31
2023/05/21 06:42:09;;;;;;;9.27;5.10;;;;;;;-143.48;72.53;118439.88;5055939;28;20055;-31
2023/05/21 06:44:34;;;;;;;8.63;5.47;;;;;;;-143.48;71.47;118439.88;5055374;28;20095;-31
2023/05/21 06:46:59;;;;;;;7.53;5.22;;;;;;;-143.48;71.02;118439.88;5055935;28;20031;-31
2023/05/21 06:49:25;;;;;;;11.40;5.60;;;;;;;-143.48;69.04;118439.88;5055404;28;20032;-31
2023/05/21 06:51:50;;;;;;;7.95;5.43;;;;;;;-143.48;70.30;118439.88;5055512;28;20040;-31
2023/05/21 06:54:15;;;;;;;9.35;5.32;;;;;;;-143.48;68.88;118439.88;5055156;28;20071;-32
2023/05/21 06:56:41;;;;;;;9.23;5.03;;;;;;;-143.48;67.45;118439.88;5055632;28;20119;-32
2023/05/21 06:59:06;;;;;;;11.23;5.40;;;;;;;-143.48;66.17;118439.88;5055362;28;20443;-31
2023/05/21 07:01:33;;;;;;;7.25;5.10;;;;;;;-143.48;67.26;118439.88;5055308;28;20033;-31
2023/05/21 07:03:58;;;;;;;9.07;5.50;;;;;;;-143.48;64.78;118439.88;5037058;28;20487;-31
2023/05/21 07:06:23;;;;;;;12.27;4.80;;;;;;;-143.48;64.29;118439.88;5055249;28;20020;-32
2023/05/21 07:08:49;;;;;;;11.05;5.30;;;;;;;-143.48;64.31;118439.88;5055170;28;20025;-32
2023/05/21 07:11:14;;;;;;;7.03;5.10;;;;;;;-143.48;64.06;118439.88;5055053;28;20029;-31
2023/05/21 07:13:39;;;;;;;8.23;5.40;;;;;;;-143.48;63.16;118439.88;5055109;28;20074;-32
2023/05/21 07:16:05;;;;;;;8.18;5.25;;;;;;;-143.48;62.76;118439.88;5054612;28;20037;-31
2023/05/21 07:18:30;;;;;;;11.52;5.20;;;;;;;-143.48;61.44;118439.88;5054752;28;20036;-32
2023/05/21 07:20:56;;;;;;;7.20;4.72;;;;;;;-143.48;58.83;118439.88;5054998;28;20024;-31
2023/05/21 07:23:21;;;;;;;7.57;4.97;;;;;;;-143.48;57.79;118439.88;5054615;28;20160;-32
2023/05/21 07:25:46;;;;;;;9.20;5.18;;;;;;;-143.48;56.85;118439.88;5054647;28;20134;-31
2023/05/21 07:28:12;;;;;;;9.55;4.88;;;;;;;-143.48;55.91;118439.88;5054809;28;20103;-32
2023/05/21 07:30:37;;;;;;;12.43;4.80;;;;;;;-143.48;56.70;118439.88;5054545;28;20021;-31
2023/05/21 07:33:02;;;;;;;7.95;5.18;;;;;;;-143.48;57.23;118439.88;5054306;28;20035;-31
2023/05/21 07:35:28;;;;;;;12.32;5.30;;;;;;;-143.48;57.84;118439.88;5054556;28;20017;-30
2023/05/21 07:37:53;;;;;;;8.02;5.10;;;;;;;-143.48;57.97;118439.88;5054736;28;20021;-31
2023/05/21 07:40:18;;;;;;;9.48;5.20;;;;;;;-143.48;59.24;118439.88;5054353;28;20075;-32
2023/05/21 07:42:44;;;;;;;11.70;5.03;;;;;;;-143.48;60.95;118439.88;5054289;28;20025;-31
2023/05/21 07:45:09;;;;;;;9.15;5.30;;;;;;;-143.48;60.07;118439.88;5053382;28;20456;-31
2023/05/21 07:47:34;;;;;;;7.45;5.00;;;;;;;-143.48;59.71;118439.88;5054144;28;20112;-32
2023/05/21 07:49:59;;;;;;;8.25;5.10;;;;;;;-143.48;59.48;118439.88;5054651;28;20131;-31
2023/05/21 07:52:25;;;;;;;13.10;5.40;;;;;;;-143.48;59.71;118439.88;5054363;28;20025;-31
2023/05/21 07:54:50;;;;;;;7.72;5.13;;;;;;;-143.48;60.26;118439.88;5054076;28;20031;-32
2023/05/21 07:57:15;;;;;;;11.95;5.53;;;;;;;-143.48;59.66;118439.88;5054264;28;20415;-32
2023/05/21 07:59:41;;;;;;;7.15;5.05;;;;;;;-143.48;59.27;118439.88;5054207;28;20032;-31
2023/05/21 08:02:06;;;;;;;6.95;5.13;;;;;;;-143.48;59.98;118439.88;5054386;28;20406;-32
2023/05/21 08:04:31;;;;;;;9.98;5.82;;;;;;;-143.48;59.46;118439.88;5054055;28;20021;-31
2023/05/21 08:06:57;;;;;;;12.23;5.60;;;;;;;-143.48;61.34;118439.88;5053753;28;20021;-31
2023/05/21 08:09:22;;;;;;;9.48;5.13;;;;;;;-143.48;60.67;118439.88;5053770;28;20392;-31
2023/05/21 08:11:47;;;;;;;8.43;5.78;;;;;;;-143.48;59.72;118439.88;5053670;28;20021;-31
2023/05/21 08:14:12;;;;;;;8.32;5.35;;;;;;;-143.48;58.31;118439.88;5053464;28;20503;-31
2023/05/21 08:16:38;;;;;;;7.72;4.97;;;;;;;-143.48;57.62;118439.88;5053797;28;20025;-31
2023/05/21 08:19:03;;;;;;;7.00;4.90;;;;;;;-143.48;55.71;118439.88;5053856;28;20032;-32
2023/05/21 08:21:28;;;;;;;10.27;4.93;;;;;;;-143.48;56.09;118439.88;5053770;28;20025;-32
2023/05/21 08:23:54;;;;;;;11.65;5.07;;;;;;;-143.48;57.19;118439.88;5054082;28;20025;-31
2023/05/21 08:26:20;;;;;;;11.00;5.20;;;;;;;-143.48;56.62;118439.88;5053762;28;20017;-31
2023/05/21 08:28:45;;;;;;;10.88;5.70;;;;;;;-143.48;57.19;118439.88;5053586;28;20021;-31
2023/05/21 08:31:11;;;;;;;10.80;5.57;;;;;;;-143.48;55.41;118439.88;5053250;28;20025;-31
2023/05/21 08:33:37;;;;;;;11.70;5.68;;;;;;;-143.48;55.95;118439.88;5053561;28;20029;-31
2023/05/21 08:36:06;;;;;;;8.38;5.55;;;;;;;-143.48;56.28;118439.88;5053556;28;20021;-32
2023/05/21 08:38:33;;;;;;;10.27;5.35;;;;;;;-143.48;55.25;118439.88;5053442;28;20100;-32
2023/05/21 08:40:59;;;;;;;12.00;5.45;;;;;;;-143.48;54.12;118439.88;5053152;28;20025;-33
2023/05/21 08:43:28;;;;;;;7.18;5.00;;;;;;;-143.48;54.07;118439.88;5053696;28;20456;-32
2023/05/21 08:45:54;;;;;;;9.48;5.22;;;;;;;-143.48;55.94;118439.88;5053302;28;20017;-33
2023/05/21 08:48:22;;;;;;;8.00;4.80;;;;;;;-143.48;55.22;118439.88;5035325;28;20029;-32
2023/05/21 08:50:50;;;;;;;8.20;5.40;;;;;;;-143.48;54.35;118439.88;5053360;28;20029;-32
2023/05/21 08:53:15;;;;;;;10.38;5.47;;;;;;;-143.48;54.36;118439.88;5053407;28;20028;-32
2023/05/21 08:55:41;;;;;;;7.93;5.13;;;;;;;-143.48;54.23;118439.88;5052866;28;20376;-33
2023/05/21 08:58:07;;;;;;;10.95;5.03;;;;;;;-143.48;55.53;118439.88;5058716;28;20097;-32
2023/05/21 09:00:32;;;;;;;8.07;4.95;;;;;;;-143.48;53.93;118439.88;5059966;28;20020;-32
2023/05/21 09:02:59;;;;;;;6.50;4.93;;;;;;;-143.48;54.63;118439.88;5059959;28;20025;-32
2023/05/21 09:05:26;;;;;;;9.73;5.90;;;;;;;-143.48;54.36;118439.88;5060024;28;20020;-32
2023/05/21 09:08:08;;;;;;;7.43;5.18;;;;;;;-143.48;54.02;118439.88;5059971;28;20035;-32
2023/05/21 09:10:37;;;;;;;7.53;5.10;;;;;;;-143.48;53.93;118439.88;5059601;28;20051;-31
2023/05/21 09:13:03;;;;;;;8.15;5.10;;;;;;;-143.48;52.93;118439.88;5059899;28;20606;-31
2023/05/21 09:15:28;;;;;;;7.68;4.90;;;;;;;-143.48;53.67;118439.88;5059438;28;20041;-32
2023/05/21 09:17:54;;;;;;;8.18;5.28;;;;;;;-143.48;55.05;118439.88;5059906;28;20037;-31
2023/05/21 09:20:23;;;;;;;7.78;4.80;;;;;;;-143.48;56.86;118439.88;5059941;28;20074;-33
2023/05/21 09:22:50;;;;;;;11.15;5.25;;;;;;;-143.48;55.39;118439.88;5059464;28;20029;-32
2023/05/21 09:25:17;;;;;;;10.05;4.40;;;;;;;-143.48;55.67;118439.88;5059455;28;20028;-33
2023/05/21 09:27:43;;;;;;;8.27;4.80;;;;;;;-143.48;55.92;118439.88;5060147;28;20107;-32
2023/05/21 09:30:10;;;;;;;10.05;4.97;;;;;;;-143.48;54.50;118439.88;5059813;28;20110;-31
2023/05/21 09:32:36;;;;;;;7.47;4.63;;;;;;;-143.48;54.02;118439.88;5059827;28;20025;-32
2023/05/21 09:35:09;;;;;;;10.20;5.05;;;;;;;-143.48;54.09;118439.88;5059253;28;20036;-31
2023/05/21 09:37:52;;;;;;;13.98;5.30;;;;;;;-143.48;53.69;118439.88;5059649;28;20464;-32
2023/05/21 09:40:19;;;;;;;9.80;5.18;;;;;;;-143.48;52.88;118439.88;5060008;28;20035;-33
2023/05/21 09:42:46;;;;;;;9.45;5.22;;;;;;;-143.48;52.33;118439.88;5059379;28;20021;-32
2023/05/21 09:45:20;;;;;;;15.23;5.72;;;;;;;-143.48;52.67;118439.88;5042527;28;20464;-33
2023/05/21 09:47:47;;;;;;;9.25;5.40;;;;;;;-143.48;52.37;118439.88;5041475;28;20021;-40
2023/05/21 09:50:16;;;;;;;9.48;5.20;;;;;;;-143.48;52.17;118439.88;5059553;28;20024;-33
2023/05/21 09:52:41;;;;;;;11.52;4.85;;;;;;;-143.48;53.04;118439.88;5059343;28;20033;-33
2023/05/21 09:55:11;;;;;;;7.00;4.47;;;;;;;-143.48;51.13;118439.88;5059136;28;20028;-33
2023/05/21 09:57:43;;;;;;;10.80;4.47;;;;;;;-143.48;49.93;118439.88;5059696;28;20033;-32
2023/05/21 10:00:18;;;;;;;10.98;4.75;;;;;;;-143.48;50.44;118439.88;5059548;28;20017;-32
2023/05/21 10:02:48;;;;;;;8.73;5.00;;;;;;;-143.48;50.31;118439.88;5059758;28;20029;-33
2023/05/21 10:05:15;;;;;;;9.75;4.68;;;;;;;-143.48;51.33;118439.88;5059235;28;20021;-32
2023/05/21 10:08:01;;;;;;;12.90;4.55;;;;;;;-143.48;51.00;118439.88;5059147;28;20108;-33
2023/05/21 10:10:28;;;;;;;6.75;4.80;;;;;;;-143.48;51.34;118439.88;5056098;28;20024;-33
2023/05/21 10:13:11;;;;;;;7.05;4.20;;;;;;;-143.48;50.31;118439.88;5055944;28;20377;-33
2023/05/21 10:15:47;;;;;;;8.30;4.57;;;;;;;-143.48;51.56;118439.88;5056126;28;20067;-32
2023/05/21 10:18:13;;;;;;;9.27;4.93;;;;;;;-143.48;51.47;118439.88;5056098;28;20053;-33
2023/05/21 10:20:39;;;;;;;9.82;4.82;;;;;;;-143.48;51.82;118439.88;5056081;28;20430;-33
2023/05/21 10:23:05;;;;;;;11.55;5.05;;;;;;;-143.48;53.53;118439.88;5055841;28;20104;-33
2023/05/21 10:25:31;;;;;;;13.02;5.20;;;;;;;-143.48;51.84;118439.88;5055744;28;20021;-33
2023/05/21 10:27:57;;;;;;;8.88;5.18;;;;;;;-143.48;51.62;118439.88;5056470;28;20028;-33
2023/05/21 10:30:23;;;;;;;10.98;4.90;;;;;;;-143.48;51.53;118439.88;5056266;28;20094;-33
2023/05/21 10:32:49;;;;;;;13.15;5.00;;;;;;;-143.48;51.88;118439.88;5055591;28;20025;-33
2023/05/21 10:35:17;;;;;;;8.98;5.00;;;;;;;-143.48;50.53;118439.88;5055480;28;20032;-32
2023/05/21 10:37:44;;;;;;;7.32;4.55;;;;;;;-143.48;50.20;118439.88;5055896;28;20376;-32
2023/05/21 10:40:10;;;;;;;8.40;4.70;;;;;;;-143.48;47.98;118439.88;5055660;28;20032;-33
2023/05/21 10:42:57;;;;;;;7.70;4.97;;;;;;;-143.48;49.09;118439.88;5055715;28;20102;-33
2023/05/21 10:45:48;;;;;;;9.63;5.07;;;;;;;-143.48;48.99;118439.88;5055400;28;20029;-33
2023/05/21 10:48:30;;;;;;;8.90;5.03;;;;;;;-143.48;48.14;118439.88;5055290;28;20027;-33
2023/05/21 10:51:14;;;;;;;12.57;5.70;;;;;;;-143.48;49.41;118439.88;5055462;28;20032;-33
2023/05/21 10:54:00;;;;;;;9.07;4.93;;;;;;;-143.48;49.25;118439.88;5055273;28;20075;-33
2023/05/21 10:56:47;;;;;;;11.30;5.00;;;;;;;-143.48;47.64;118439.88;5055398;28;20522;-33
2023/05/21 10:59:38;;;;;;;8.13;4.63;;;;;;;-143.48;46.55;118439.88;5055439;28;20031;-34
2023/05/21 11:02:05;;;;;;;10.30;5.38;;;;;;;-143.48;48.77;118439.88;5037208;28;20041;-33
2023/05/21 11:04:31;;;;;;;10.23;4.78;;;;;;;-143.48;47.47;118439.88;5055013;28;20025;-33
2023/05/21 11:06:57;;;;;;;9.98;4.68;;;;;;;-143.48;46.09;118439.88;5055298;28;20043;-33